createdAt,value
2023-04-16T00:00:24.603Z,0.87
2023-04-16T00:01:24.632Z,0.82
2023-04-16T00:02:24.770Z,0.86
2023-04-16T00:03:24.899Z,0.84
2023-04-16T00:04:24.748Z,0.67
2023-04-16T00:05:24.726Z,0.65
2023-04-16T00:06:24.772Z,0.59
2023-04-16T00:07:24.765Z,0.62
2023-04-16T00:08:24.826Z,0.66
2023-04-16T00:09:24.825Z,0.62
2023-04-16T00:10:24.827Z,0.68
2023-04-16T00:11:24.850Z,0.70
2023-04-16T00:12:24.891Z,0.72
2023-04-16T00:13:24.912Z,0.83
2023-04-16T00:14:24.934Z,0.82
2023-04-16T00:15:24.941Z,0.72
2023-04-16T00:16:25.032Z,0.64
2023-04-16T00:17:25.028Z,0.70
2023-04-16T00:18:25.015Z,0.69
2023-04-16T00:19:25.064Z,0.64
2023-04-16T00:20:25.065Z,0.76
2023-04-16T00:21:25.097Z,0.78
2023-04-16T00:22:25.140Z,0.83
2023-04-16T00:23:25.171Z,0.86
2023-04-16T00:24:25.174Z,0.87
2023-04-16T00:25:25.215Z,0.87
2023-04-16T00:26:25.230Z,0.81
2023-04-16T00:27:25.275Z,0.81
2023-04-16T00:28:25.292Z,0.74
2023-04-16T00:29:25.313Z,0.68
2023-04-16T00:30:25.327Z,0.63
2023-04-16T00:31:25.407Z,0.61
2023-04-16T00:32:25.371Z,0.57
2023-04-16T00:33:25.390Z,0.62
2023-04-16T00:34:25.412Z,0.68
2023-04-16T00:35:25.441Z,0.71
2023-04-16T00:36:25.465Z,0.81
2023-04-16T00:37:25.501Z,0.76
2023-04-16T00:38:25.513Z,0.71
2023-04-16T00:39:25.555Z,0.67
2023-04-16T00:40:25.588Z,0.68
2023-04-16T00:41:25.645Z,0.60
2023-04-16T00:42:25.621Z,0.62
2023-04-16T00:43:25.639Z,0.58
2023-04-16T00:44:25.661Z,0.64
2023-04-16T00:45:25.704Z,0.67
2023-04-16T00:46:25.821Z,0.65
2023-04-16T00:47:25.750Z,0.72
2023-04-16T00:48:25.752Z,0.72
2023-04-16T00:49:25.791Z,0.67
2023-04-16T00:50:25.814Z,0.67
2023-04-16T00:51:25.922Z,0.64
2023-04-16T00:52:25.852Z,0.63
2023-04-16T00:53:25.884Z,0.63
2023-04-16T00:54:25.910Z,0.67
2023-04-16T00:55:25.935Z,0.78
2023-04-16T00:56:25.973Z,0.78
2023-04-16T00:57:25.977Z,0.81
2023-04-16T00:58:26.007Z,0.82
2023-04-16T00:59:26.035Z,0.82
2023-04-16T01:00:26.081Z,0.86
2023-04-16T01:01:26.137Z,0.94
2023-04-16T01:02:26.214Z,0.84
2023-04-16T01:03:26.212Z,0.79
2023-04-16T01:04:26.241Z,0.75
2023-04-16T01:05:26.201Z,0.69
2023-04-16T01:06:26.226Z,0.60
2023-04-16T01:07:26.242Z,0.72
2023-04-16T01:08:26.271Z,0.73
2023-04-16T01:09:26.315Z,0.70
2023-04-16T01:10:26.345Z,0.84
2023-04-16T01:11:26.365Z,0.91
2023-04-16T01:12:26.400Z,0.91
2023-04-16T01:13:26.430Z,0.85
2023-04-16T01:14:26.428Z,0.84
2023-04-16T01:15:26.471Z,0.89
2023-04-16T01:16:26.551Z,0.85
2023-04-16T01:17:26.530Z,0.97
2023-04-16T01:18:26.546Z,0.89
2023-04-16T01:19:26.596Z,0.95
2023-04-16T01:20:26.637Z,0.93
2023-04-16T01:21:26.662Z,1.03
2023-04-16T01:22:26.694Z,1.06
2023-04-16T01:23:26.721Z,1.11
2023-04-16T01:24:26.772Z,0.98
2023-04-16T01:25:26.781Z,1.08
2023-04-16T01:26:26.807Z,1.03
2023-04-16T01:27:26.824Z,1.18
2023-04-16T01:28:26.841Z,1.39
2023-04-16T01:29:26.880Z,1.58
2023-04-16T01:30:26.902Z,1.29
2023-04-16T01:31:26.968Z,1.17
2023-04-16T01:32:26.978Z,1.14
2023-04-16T01:33:26.988Z,1.05
2023-04-16T01:34:26.996Z,1.14
2023-04-16T01:35:27.041Z,1.15
2023-04-16T01:36:27.048Z,1.26
2023-04-16T01:37:27.081Z,1.25
2023-04-16T01:38:27.125Z,1.22
2023-04-16T01:39:27.139Z,1.09
2023-04-16T01:40:27.148Z,1.10
2023-04-16T01:41:27.205Z,1.14
2023-04-16T01:42:27.212Z,1.11
2023-04-16T01:43:27.229Z,1.07
2023-04-16T01:44:27.252Z,1.24
2023-04-16T01:45:27.271Z,1.38
2023-04-16T01:46:27.341Z,1.34
2023-04-16T01:47:27.352Z,1.38
2023-04-16T01:48:27.342Z,1.53
2023-04-16T01:49:27.390Z,1.39
2023-04-16T01:50:27.422Z,1.41
2023-04-16T01:51:27.427Z,1.57
2023-04-16T01:52:27.454Z,1.77
2023-04-16T01:53:27.479Z,1.93
2023-04-16T01:54:27.499Z,1.84
2023-04-16T01:55:27.528Z,1.97
2023-04-16T01:56:27.540Z,1.77
2023-04-16T01:57:27.593Z,1.61
2023-04-16T01:58:27.594Z,1.80
2023-04-16T01:59:27.614Z,2.14
2023-04-16T02:00:27.646Z,2.00
2023-04-16T02:01:27.767Z,1.88
2023-04-16T02:02:27.848Z,1.89
2023-04-16T02:03:27.796Z,1.58
2023-04-16T02:04:27.723Z,1.48
2023-04-16T02:05:27.753Z,1.21
2023-04-16T02:06:27.772Z,1.25
2023-04-16T02:07:27.792Z,1.17
2023-04-16T02:08:27.809Z,1.21
2023-04-16T02:09:27.857Z,1.12
2023-04-16T02:10:27.860Z,1.17
2023-04-16T02:11:27.879Z,1.16
2023-04-16T02:12:27.982Z,1.20
2023-04-16T02:13:27.935Z,1.15
2023-04-16T02:14:27.963Z,1.33
2023-04-16T02:15:28.005Z,1.29
2023-04-16T02:16:28.026Z,1.59
2023-04-16T02:17:28.128Z,1.44
2023-04-16T02:18:28.082Z,1.26
2023-04-16T02:19:28.087Z,1.28
2023-04-16T02:20:28.120Z,1.25
2023-04-16T02:21:28.152Z,1.32
2023-04-16T02:22:28.170Z,1.45
2023-04-16T02:23:28.212Z,1.51
2023-04-16T02:24:28.240Z,1.26
2023-04-16T02:25:28.269Z,1.32
2023-04-16T02:26:28.309Z,1.94
2023-04-16T02:27:28.322Z,2.18
2023-04-16T02:28:28.346Z,2.38
2023-04-16T02:29:28.357Z,2.33
2023-04-16T02:30:28.379Z,2.42
2023-04-16T02:31:28.443Z,2.58
2023-04-16T02:32:28.449Z,2.26
2023-04-16T02:33:28.473Z,2.10
2023-04-16T02:34:28.494Z,2.17
2023-04-16T02:35:28.514Z,2.36
2023-04-16T02:36:28.518Z,2.46
2023-04-16T02:37:28.533Z,2.74
2023-04-16T02:38:28.575Z,2.27
2023-04-16T02:39:28.589Z,2.77
2023-04-16T02:40:28.614Z,2.55
2023-04-16T02:41:28.652Z,2.82
2023-04-16T02:42:28.656Z,2.64
2023-04-16T02:43:28.714Z,2.25
2023-04-16T02:44:28.722Z,2.09
2023-04-16T02:45:28.751Z,1.93
2023-04-16T02:46:28.931Z,1.96
2023-04-16T02:47:28.886Z,2.02
2023-04-16T02:48:28.828Z,2.23
2023-04-16T02:49:28.850Z,1.90
2023-04-16T02:50:28.866Z,1.93
2023-04-16T02:51:28.909Z,2.71
2023-04-16T02:52:28.931Z,3.09
2023-04-16T02:53:28.973Z,3.25
2023-04-16T02:54:28.975Z,3.29
2023-04-16T02:55:29.007Z,3.36
2023-04-16T02:56:29.026Z,3.44
2023-04-16T02:57:29.056Z,2.91
2023-04-16T02:58:29.082Z,2.92
2023-04-16T02:59:29.157Z,2.88
2023-04-16T03:00:29.142Z,2.81
2023-04-16T03:01:29.261Z,2.92
2023-04-16T03:02:29.293Z,3.24
2023-04-16T03:03:29.229Z,2.85
2023-04-16T03:04:29.289Z,2.94
2023-04-16T03:05:29.293Z,2.90
2023-04-16T03:06:29.304Z,3.45
2023-04-16T03:07:29.309Z,3.70
2023-04-16T03:08:29.346Z,3.60
2023-04-16T03:09:29.357Z,3.73
2023-04-16T03:10:29.398Z,3.27
2023-04-16T03:11:29.436Z,3.54
2023-04-16T03:12:29.452Z,3.01
2023-04-16T03:13:29.486Z,3.02
2023-04-16T03:14:29.501Z,2.93
2023-04-16T03:15:29.586Z,2.62
2023-04-16T03:16:29.552Z,2.86
2023-04-16T03:17:29.613Z,3.04
2023-04-16T03:18:29.591Z,3.19
2023-04-16T03:19:29.607Z,3.51
2023-04-16T03:20:29.644Z,2.89
2023-04-16T03:21:29.673Z,3.03
2023-04-16T03:22:29.705Z,3.37
2023-04-16T03:23:29.730Z,3.21
2023-04-16T03:24:29.792Z,3.14
2023-04-16T03:25:29.785Z,2.67
2023-04-16T03:26:29.791Z,2.42
2023-04-16T03:27:29.818Z,2.45
2023-04-16T03:28:29.857Z,2.18
2023-04-16T03:29:29.865Z,2.04
2023-04-16T03:30:29.889Z,1.96
2023-04-16T03:31:29.951Z,1.98
2023-04-16T03:32:29.954Z,1.96
2023-04-16T03:33:29.990Z,1.90
2023-04-16T03:34:30.021Z,1.94
2023-04-16T03:35:30.042Z,1.94
2023-04-16T03:36:30.046Z,1.76
2023-04-16T03:37:30.083Z,1.80
2023-04-16T03:38:30.100Z,1.93
2023-04-16T03:39:30.145Z,2.49
2023-04-16T03:40:30.151Z,2.76
2023-04-16T03:41:30.168Z,3.10
2023-04-16T03:42:30.213Z,2.87
2023-04-16T03:43:30.219Z,2.74
2023-04-16T03:44:30.236Z,2.45
2023-04-16T03:45:30.265Z,2.50
2023-04-16T03:46:30.328Z,2.00
2023-04-16T03:47:30.351Z,2.02
2023-04-16T03:48:30.379Z,2.38
2023-04-16T03:49:30.394Z,2.36
2023-04-16T03:50:30.413Z,2.15
2023-04-16T03:51:30.430Z,1.94
2023-04-16T03:52:30.461Z,1.93
2023-04-16T03:53:30.517Z,2.24
2023-04-16T03:54:30.529Z,2.52
2023-04-16T03:55:30.591Z,2.90
2023-04-16T03:56:30.611Z,3.00
2023-04-16T03:57:30.626Z,3.36
2023-04-16T03:58:30.644Z,3.54
2023-04-16T03:59:30.675Z,3.62
2023-04-16T04:00:30.719Z,4.24
2023-04-16T04:01:30.761Z,4.55
2023-04-16T04:02:30.871Z,4.97
2023-04-16T04:03:31.113Z,5.93
2023-04-16T04:04:30.963Z,6.21
2023-04-16T04:05:30.815Z,5.52
2023-04-16T04:06:30.862Z,4.90
2023-04-16T04:07:30.874Z,4.61
2023-04-16T04:08:30.912Z,4.31
2023-04-16T04:09:30.945Z,4.36
2023-04-16T04:10:30.946Z,4.48
2023-04-16T04:11:30.987Z,4.80
2023-04-16T04:12:30.983Z,4.72
2023-04-16T04:13:31.062Z,4.55
2023-04-16T04:14:31.043Z,4.40
2023-04-16T04:15:31.066Z,4.11
2023-04-16T04:16:31.127Z,4.04
2023-04-16T04:17:31.175Z,4.04
2023-04-16T04:18:31.134Z,4.12
2023-04-16T04:19:31.170Z,3.95
2023-04-16T04:20:31.196Z,4.17
2023-04-16T04:21:31.224Z,4.17
2023-04-16T04:22:31.253Z,4.45
2023-04-16T04:23:31.278Z,4.13
2023-04-16T04:24:31.280Z,4.02
2023-04-16T04:25:31.323Z,4.13
2023-04-16T04:26:31.411Z,4.42
2023-04-16T04:27:31.357Z,4.85
2023-04-16T04:28:31.392Z,4.51
2023-04-16T04:29:31.394Z,4.52
2023-04-16T04:30:31.436Z,4.62
2023-04-16T04:31:31.516Z,4.67
2023-04-16T04:32:31.495Z,5.31
2023-04-16T04:33:31.504Z,4.80
2023-04-16T04:34:31.523Z,4.77
2023-04-16T04:35:31.556Z,4.33
2023-04-16T04:36:31.604Z,4.01
2023-04-16T04:37:31.608Z,3.86
2023-04-16T04:38:31.636Z,4.46
2023-04-16T04:39:31.664Z,4.51
2023-04-16T04:40:31.697Z,4.83
2023-04-16T04:41:31.715Z,4.84
2023-04-16T04:42:31.747Z,4.56
2023-04-16T04:43:31.788Z,4.31
2023-04-16T04:44:31.803Z,4.22
2023-04-16T04:45:32.182Z,4.36
2023-04-16T04:46:31.860Z,4.49
2023-04-16T04:47:31.925Z,4.44
2023-04-16T04:48:31.936Z,4.16
2023-04-16T04:49:31.951Z,3.93
2023-04-16T04:50:31.975Z,3.81
2023-04-16T04:51:32.021Z,3.37
2023-04-16T04:52:32.064Z,3.20
2023-04-16T04:53:32.077Z,3.13
2023-04-16T04:54:32.108Z,3.15
2023-04-16T04:55:32.127Z,3.44
2023-04-16T04:56:32.167Z,3.17
2023-04-16T04:57:32.206Z,2.95
2023-04-16T04:58:32.200Z,3.12
2023-04-16T04:59:32.244Z,3.24
2023-04-16T05:00:32.274Z,3.94
2023-04-16T05:01:32.322Z,3.69
2023-04-16T05:02:32.372Z,3.87
2023-04-16T05:03:32.422Z,3.88
2023-04-16T05:04:32.371Z,3.43
2023-04-16T05:05:32.409Z,3.20
2023-04-16T05:06:32.432Z,3.38
2023-04-16T05:07:32.487Z,3.74
2023-04-16T05:08:32.492Z,3.24
2023-04-16T05:09:32.522Z,3.29
2023-04-16T05:10:32.582Z,3.29
2023-04-16T05:11:32.571Z,3.53
2023-04-16T05:12:32.611Z,3.69
2023-04-16T05:13:32.621Z,3.34
2023-04-16T05:14:32.688Z,3.47
2023-04-16T05:15:32.694Z,3.75
2023-04-16T05:16:32.736Z,4.02
2023-04-16T05:17:32.781Z,3.86
2023-04-16T05:18:32.797Z,3.48
2023-04-16T05:19:32.794Z,3.47
2023-04-16T05:20:32.820Z,3.76
2023-04-16T05:21:32.845Z,3.88
2023-04-16T05:22:32.887Z,3.51
2023-04-16T05:23:32.906Z,3.21
2023-04-16T05:24:32.928Z,3.27
2023-04-16T05:25:32.957Z,3.95
2023-04-16T05:26:32.988Z,3.98
2023-04-16T05:27:33.008Z,3.51
2023-04-16T05:28:33.048Z,3.08
2023-04-16T05:29:33.096Z,3.18
2023-04-16T05:30:33.102Z,3.08
2023-04-16T05:31:33.100Z,3.03
2023-04-16T05:32:33.141Z,3.20
2023-04-16T05:33:33.141Z,3.01
2023-04-16T05:34:33.151Z,3.10
2023-04-16T05:35:33.175Z,3.41
2023-04-16T05:36:33.187Z,2.98
2023-04-16T05:37:33.220Z,2.41
2023-04-16T05:38:33.255Z,2.46
2023-04-16T05:39:33.301Z,2.67
2023-04-16T05:40:33.314Z,2.60
2023-04-16T05:41:33.336Z,2.72
2023-04-16T05:42:33.332Z,2.89
2023-04-16T05:43:33.368Z,2.83
2023-04-16T05:44:33.373Z,2.52
2023-04-16T05:45:33.400Z,2.73
2023-04-16T05:46:33.527Z,2.37
2023-04-16T05:47:33.479Z,2.28
2023-04-16T05:48:33.479Z,2.17
2023-04-16T05:49:33.519Z,2.21
2023-04-16T05:50:33.506Z,2.23
2023-04-16T05:51:33.561Z,2.30
2023-04-16T05:52:33.566Z,2.38
2023-04-16T05:53:33.626Z,2.50
2023-04-16T05:54:33.628Z,2.37
2023-04-16T05:55:33.654Z,2.33
2023-04-16T05:56:33.677Z,2.37
2023-04-16T05:57:33.715Z,2.10
2023-04-16T05:58:33.732Z,1.92
2023-04-16T05:59:33.772Z,1.97
2023-04-16T06:00:33.813Z,2.02
2023-04-16T06:01:34.475Z,2.19
2023-04-16T06:02:34.067Z,2.28
2023-04-16T06:03:34.002Z,2.14
2023-04-16T06:04:33.918Z,2.02
2023-04-16T06:05:33.966Z,1.93
2023-04-16T06:06:33.957Z,1.80
2023-04-16T06:07:34.006Z,1.80
2023-04-16T06:08:34.035Z,1.72
2023-04-16T06:09:34.076Z,1.72
2023-04-16T06:10:34.079Z,1.55
2023-04-16T06:11:35.881Z,1.56
2023-04-16T06:12:34.121Z,1.58
2023-04-16T06:13:34.133Z,1.67
2023-04-16T06:14:34.171Z,1.60
2023-04-16T06:15:34.182Z,1.81
2023-04-16T06:16:34.324Z,2.10
2023-04-16T06:17:34.303Z,2.35
2023-04-16T06:18:34.256Z,2.44
2023-04-16T06:19:34.287Z,2.67
2023-04-16T06:20:34.300Z,2.69
2023-04-16T06:21:34.339Z,2.64
2023-04-16T06:22:34.399Z,2.80
2023-04-16T06:23:34.398Z,2.55
2023-04-16T06:24:34.416Z,2.41
2023-04-16T06:25:34.466Z,2.37
2023-04-16T06:26:34.453Z,2.24
2023-04-16T06:27:34.481Z,2.04
2023-04-16T06:28:34.512Z,2.35
2023-04-16T06:29:41.165Z,2.07
2023-04-16T06:30:35.522Z,2.08
2023-04-16T06:31:34.535Z,2.09
2023-04-16T06:32:34.589Z,2.14
2023-04-16T06:33:34.486Z,2.38
2023-04-16T06:34:34.507Z,2.42
2023-04-16T06:35:34.474Z,2.32
2023-04-16T06:36:34.461Z,2.19
2023-04-16T06:37:34.457Z,1.97
2023-04-16T06:38:34.478Z,2.08
2023-04-16T06:39:34.466Z,2.11
2023-04-16T06:40:34.440Z,2.19
2023-04-16T06:41:34.434Z,2.20
2023-04-16T06:42:34.437Z,1.91
2023-04-16T06:43:34.429Z,2.01
2023-04-16T06:44:34.411Z,2.50
2023-04-16T06:45:34.430Z,2.38
2023-04-16T06:46:34.474Z,2.23
2023-04-16T06:47:34.590Z,2.35
2023-04-16T06:48:34.506Z,2.39
2023-04-16T06:49:34.514Z,2.71
2023-04-16T06:50:34.537Z,2.90
2023-04-16T06:51:34.554Z,2.58
2023-04-16T06:52:34.573Z,2.66
2023-04-16T06:53:34.612Z,2.87
2023-04-16T06:54:34.630Z,2.70
2023-04-16T06:55:34.636Z,2.53
2023-04-16T06:56:34.670Z,2.42
2023-04-16T06:57:36.265Z,2.46
2023-04-16T06:58:34.690Z,2.66
2023-04-16T06:59:34.678Z,2.85
2023-04-16T07:00:34.697Z,2.72
2023-04-16T07:01:34.745Z,3.07
2023-04-16T07:02:34.855Z,2.88
2023-04-16T07:03:34.752Z,2.76
2023-04-16T07:04:34.634Z,2.49
2023-04-16T07:05:34.652Z,2.78
2023-04-16T07:06:34.632Z,2.53
2023-04-16T07:07:34.609Z,2.73
2023-04-16T07:08:34.605Z,2.63
2023-04-16T07:09:34.608Z,2.57
2023-04-16T07:10:34.586Z,2.48
2023-04-16T07:11:34.612Z,2.45
2023-04-16T07:12:34.582Z,2.58
2023-04-16T07:13:34.570Z,2.35
2023-04-16T07:14:34.558Z,2.28
2023-04-16T07:15:34.564Z,2.17
2023-04-16T07:16:34.617Z,2.11
2023-04-16T07:17:34.540Z,2.18
2023-04-16T07:18:34.549Z,2.36
2023-04-16T07:19:34.546Z,2.21
2023-04-16T07:20:34.538Z,2.13
2023-04-16T07:21:34.536Z,2.08
2023-04-16T07:22:34.521Z,2.30
2023-04-16T07:23:34.506Z,2.18
2023-04-16T07:24:34.517Z,2.27
2023-04-16T07:25:34.486Z,2.16
2023-04-16T07:26:34.473Z,2.14
2023-04-16T07:27:34.478Z,2.23
2023-04-16T07:28:34.463Z,2.36
2023-04-16T07:29:34.453Z,2.56
2023-04-16T07:30:34.467Z,2.59
2023-04-16T07:31:34.476Z,2.35
2023-04-16T07:32:34.472Z,2.33
2023-04-16T07:33:34.437Z,2.34
2023-04-16T07:34:34.423Z,2.30
2023-04-16T07:35:34.412Z,2.25
2023-04-16T07:36:34.426Z,2.19
2023-04-16T07:37:34.397Z,2.27
2023-04-16T07:38:34.402Z,2.37
2023-04-16T07:39:34.398Z,2.49
2023-04-16T07:40:34.394Z,2.57
2023-04-16T07:41:34.383Z,2.67
2023-04-16T07:42:34.382Z,2.72
2023-04-16T07:43:34.373Z,2.78
2023-04-16T07:44:34.377Z,3.05
2023-04-16T07:45:34.388Z,2.91
2023-04-16T07:46:43.548Z,2.90
2023-04-16T07:47:35.357Z,2.81
2023-04-16T07:48:34.352Z,2.69
2023-04-16T07:49:34.338Z,2.69
2023-04-16T07:50:34.307Z,2.49
2023-04-16T07:51:34.299Z,2.66
2023-04-16T07:52:34.303Z,2.61
2023-04-16T07:53:34.312Z,2.69
2023-04-16T07:54:34.300Z,2.69
2023-04-16T07:55:34.309Z,2.50
2023-04-16T07:56:34.296Z,2.53
2023-04-16T07:57:34.297Z,2.45
2023-04-16T07:58:34.272Z,2.60
2023-04-16T07:59:34.286Z,2.40
2023-04-16T08:00:34.268Z,2.81
2023-04-16T08:01:34.250Z,3.03
2023-04-16T08:02:34.330Z,3.57
2023-04-16T08:03:34.330Z,3.32
2023-04-16T08:04:34.368Z,2.98
2023-04-16T08:05:34.217Z,2.85
2023-04-16T08:06:34.200Z,3.03
2023-04-16T08:07:34.903Z,2.92
2023-04-16T08:08:34.194Z,2.76
2023-04-16T08:09:34.239Z,2.73
2023-04-16T08:10:34.249Z,3.43
2023-04-16T08:11:34.269Z,3.80
2023-04-16T08:12:34.276Z,4.33
2023-04-16T08:13:34.286Z,4.66
2023-04-16T08:14:34.310Z,4.79
2023-04-16T08:15:34.364Z,4.97
2023-04-16T08:16:34.327Z,4.71
2023-04-16T08:17:34.401Z,3.73
2023-04-16T08:18:34.376Z,4.45
2023-04-16T08:19:34.380Z,4.62
2023-04-16T08:20:34.418Z,4.68
2023-04-16T08:21:34.413Z,4.99
2023-04-16T08:22:34.443Z,4.87
2023-04-16T08:23:34.447Z,4.81
2023-04-16T08:24:34.479Z,4.80
2023-04-16T08:25:34.486Z,4.78
2023-04-16T08:26:34.496Z,5.02
2023-04-16T08:27:34.527Z,4.63
2023-04-16T08:28:34.540Z,4.95
2023-04-16T08:29:34.559Z,5.22
2023-04-16T08:30:34.552Z,4.92
2023-04-16T08:31:34.628Z,4.94
2023-04-16T08:32:34.603Z,5.15
2023-04-16T08:33:34.607Z,5.09
2023-04-16T08:34:34.619Z,4.88
2023-04-16T08:35:34.613Z,4.80
2023-04-16T08:36:34.646Z,5.02
2023-04-16T08:37:34.651Z,4.92
2023-04-16T08:38:34.661Z,5.07
2023-04-16T08:39:34.653Z,5.09
2023-04-16T08:40:34.679Z,5.00
2023-04-16T08:41:34.674Z,4.74
2023-04-16T08:42:34.686Z,4.82
2023-04-16T08:43:34.688Z,4.70
2023-04-16T08:44:34.716Z,4.60
2023-04-16T08:45:34.713Z,4.46
2023-04-16T08:46:34.766Z,4.42
2023-04-16T08:47:34.735Z,4.35
2023-04-16T08:48:34.734Z,4.22
2023-04-16T08:49:34.720Z,4.27
2023-04-16T08:50:34.753Z,4.40
2023-04-16T08:51:34.761Z,4.50
2023-04-16T08:52:34.748Z,4.55
2023-04-16T08:53:34.747Z,4.59
2023-04-16T08:54:34.741Z,4.52
2023-04-16T08:55:34.764Z,4.38
2023-04-16T08:56:34.769Z,4.43
2023-04-16T08:57:34.782Z,4.53
2023-04-16T08:58:34.774Z,4.51
2023-04-16T08:59:34.794Z,4.50
2023-04-16T09:00:34.788Z,4.65
2023-04-16T09:01:34.860Z,4.56
2023-04-16T09:02:35.065Z,4.96
2023-04-16T09:03:36.460Z,4.79
2023-04-16T09:04:34.879Z,4.78
2023-04-16T09:05:34.837Z,4.72
2023-04-16T09:06:34.844Z,4.70
2023-04-16T09:07:34.831Z,4.73
2023-04-16T09:08:34.854Z,4.82
2023-04-16T09:09:34.856Z,4.74
2023-04-16T09:10:34.872Z,4.37
2023-04-16T09:11:34.851Z,4.19
2023-04-16T09:12:34.856Z,4.04
2023-04-16T09:13:34.878Z,4.37
2023-04-16T09:14:34.876Z,4.42
2023-04-16T09:15:35.276Z,4.50
2023-04-16T09:16:34.910Z,4.06
2023-04-16T09:17:34.967Z,4.16
2023-04-16T09:18:34.938Z,3.95
2023-04-16T09:19:34.915Z,4.26
2023-04-16T09:20:34.930Z,4.08
2023-04-16T09:21:34.930Z,4.05
2023-04-16T09:22:34.947Z,4.08
2023-04-16T09:23:34.927Z,4.03
2023-04-16T09:24:34.956Z,3.93
2023-04-16T09:25:34.966Z,3.91
2023-04-16T09:26:34.979Z,3.84
2023-04-16T09:27:34.989Z,3.74
2023-04-16T09:28:35.004Z,3.82
2023-04-16T09:29:34.975Z,3.92
2023-04-16T09:30:35.001Z,3.75
2023-04-16T09:31:35.086Z,3.84
2023-04-16T09:32:35.023Z,3.87
2023-04-16T09:33:35.123Z,3.87
2023-04-16T09:34:35.022Z,3.88
2023-04-16T09:35:34.997Z,4.00
2023-04-16T09:36:35.018Z,4.20
2023-04-16T09:37:35.006Z,4.25
2023-04-16T09:38:35.019Z,3.96
2023-04-16T09:39:35.009Z,4.10
2023-04-16T09:40:35.065Z,4.02
2023-04-16T09:41:35.022Z,4.05
2023-04-16T09:42:35.003Z,4.09
2023-04-16T09:43:35.026Z,4.12
2023-04-16T09:44:35.007Z,4.19
2023-04-16T09:45:35.035Z,4.13
2023-04-16T09:46:35.096Z,4.12
2023-04-16T09:47:35.074Z,4.24
2023-04-16T09:48:35.024Z,4.25
2023-04-16T09:49:35.013Z,4.21
2023-04-16T09:50:35.069Z,4.26
2023-04-16T09:51:35.035Z,4.46
2023-04-16T09:52:35.043Z,4.40
2023-04-16T09:53:35.034Z,4.34
2023-04-16T09:54:35.013Z,4.44
2023-04-16T09:55:35.040Z,4.48
2023-04-16T09:56:35.065Z,4.34
2023-04-16T09:57:35.020Z,4.35
2023-04-16T09:58:35.032Z,4.46
2023-04-16T09:59:35.021Z,4.34
2023-04-16T10:00:35.069Z,4.47
2023-04-16T10:01:36.087Z,4.47
2023-04-16T10:02:35.050Z,4.29
2023-04-16T10:03:35.336Z,4.48
2023-04-16T10:04:35.041Z,4.39
2023-04-16T10:05:34.999Z,4.34
2023-04-16T10:06:34.971Z,4.48
2023-04-16T10:07:34.963Z,4.46
2023-04-16T10:08:34.990Z,4.71
2023-04-16T10:09:34.965Z,4.68
2023-04-16T10:10:34.966Z,4.60
2023-04-16T10:11:34.964Z,4.61
2023-04-16T10:12:34.940Z,4.69
2023-04-16T10:13:34.937Z,4.71
2023-04-16T10:14:34.929Z,4.75
2023-04-16T10:15:34.908Z,5.01
2023-04-16T10:16:34.939Z,4.97
2023-04-16T10:17:34.995Z,4.79
2023-04-16T10:18:34.896Z,4.94
2023-04-16T10:19:34.900Z,4.77
2023-04-16T10:20:34.886Z,4.73
2023-04-16T10:21:34.866Z,4.66
2023-04-16T10:22:34.875Z,4.68
2023-04-16T10:23:34.889Z,4.69
2023-04-16T10:24:34.900Z,4.74
2023-04-16T10:25:34.915Z,4.55
2023-04-16T10:26:34.967Z,4.69
2023-04-16T10:27:34.997Z,4.82
2023-04-16T10:28:35.061Z,4.76
2023-04-16T10:29:35.085Z,4.85
2023-04-16T10:30:35.132Z,4.86
2023-04-16T10:31:35.129Z,4.90
2023-04-16T10:32:35.157Z,4.75
2023-04-16T10:33:35.158Z,4.74
2023-04-16T10:34:35.171Z,4.80
2023-04-16T10:35:35.207Z,4.86
2023-04-16T10:36:35.222Z,4.94
2023-04-16T10:37:35.251Z,4.69
2023-04-16T10:38:35.294Z,4.69
2023-04-16T10:39:35.283Z,5.04
2023-04-16T10:40:35.309Z,5.15
2023-04-16T10:41:35.358Z,5.04
2023-04-16T10:42:35.374Z,5.24
2023-04-16T10:43:35.407Z,5.21
2023-04-16T10:44:35.440Z,5.18
2023-04-16T10:45:35.460Z,5.25
2023-04-16T10:46:35.586Z,5.09
2023-04-16T10:47:35.523Z,5.45
2023-04-16T10:48:46.518Z,5.30
2023-04-16T10:49:36.543Z,5.31
2023-04-16T10:50:35.524Z,5.24
2023-04-16T10:51:35.520Z,5.12
2023-04-16T10:52:35.515Z,5.08
2023-04-16T10:53:35.509Z,5.05
2023-04-16T10:54:35.510Z,5.16
2023-04-16T10:55:35.481Z,5.20
2023-04-16T10:56:35.499Z,5.09
2023-04-16T10:57:35.488Z,5.39
2023-04-16T10:58:35.521Z,5.50
2023-04-16T10:59:35.533Z,5.20
2023-04-16T11:00:35.564Z,5.18
2023-04-16T11:01:35.630Z,5.06
2023-04-16T11:02:35.970Z,5.04
2023-04-16T11:03:35.814Z,5.05
2023-04-16T11:04:35.832Z,5.16
2023-04-16T11:05:35.760Z,5.31
2023-04-16T11:06:35.811Z,5.18
2023-04-16T11:07:35.852Z,5.29
2023-04-16T11:08:44.264Z,5.28
2023-04-16T11:09:36.880Z,5.28
2023-04-16T11:10:35.858Z,5.12
2023-04-16T11:11:35.869Z,5.13
2023-04-16T11:12:35.870Z,5.17
2023-04-16T11:13:35.839Z,5.30
2023-04-16T11:14:35.838Z,5.46
2023-04-16T11:15:35.852Z,5.27
2023-04-16T11:16:35.817Z,5.24
2023-04-16T11:17:35.862Z,5.03
2023-04-16T11:18:35.824Z,4.93
2023-04-16T11:19:36.809Z,4.94
2023-04-16T11:20:35.806Z,4.97
2023-04-16T11:21:35.809Z,4.98
2023-04-16T11:22:35.831Z,4.87
2023-04-16T11:23:35.788Z,5.16
2023-04-16T11:24:35.779Z,4.94
2023-04-16T11:25:35.776Z,5.15
2023-04-16T11:26:35.774Z,4.95
2023-04-16T11:27:35.788Z,4.94
2023-04-16T11:28:35.801Z,5.02
2023-04-16T11:29:35.840Z,4.97
2023-04-16T11:30:35.890Z,5.26
2023-04-16T11:31:36.014Z,5.30
2023-04-16T11:32:36.084Z,5.16
2023-04-16T11:33:36.063Z,5.26
2023-04-16T11:34:36.123Z,4.83
2023-04-16T11:35:36.203Z,5.02
2023-04-16T11:36:36.243Z,5.09
2023-04-16T11:37:36.358Z,5.16
2023-04-16T11:38:36.374Z,5.37
2023-04-16T11:39:36.434Z,5.47
2023-04-16T11:40:36.517Z,4.75
2023-04-16T11:41:36.534Z,4.76
2023-04-16T11:42:36.643Z,5.23
2023-04-16T11:43:36.686Z,5.32
2023-04-16T11:44:36.725Z,5.05
2023-04-16T11:45:36.795Z,4.82
2023-04-16T11:46:36.869Z,5.16
2023-04-16T11:47:36.973Z,5.02
2023-04-16T11:48:36.925Z,4.97
2023-04-16T11:49:36.948Z,4.68
2023-04-16T11:50:36.996Z,4.84
2023-04-16T11:51:37.050Z,4.48
2023-04-16T11:52:37.139Z,4.40
2023-04-16T11:53:37.170Z,4.67
2023-04-16T11:54:37.192Z,4.59
2023-04-16T11:55:37.233Z,4.41
2023-04-16T11:56:37.257Z,4.26
2023-04-16T11:57:37.304Z,4.31
2023-04-16T11:58:37.336Z,4.42
2023-04-16T11:59:38.282Z,4.42
2023-04-16T12:00:38.280Z,4.43
2023-04-16T12:01:37.262Z,4.46
2023-04-16T12:02:37.519Z,4.46
2023-04-16T12:03:37.528Z,4.24
2023-04-16T12:04:37.362Z,4.05
2023-04-16T12:05:37.246Z,3.66
2023-04-16T12:06:37.265Z,4.00
2023-04-16T12:07:37.262Z,4.31
2023-04-16T12:08:37.269Z,4.08
2023-04-16T12:09:40.244Z,4.13
2023-04-16T12:10:37.228Z,4.06
2023-04-16T12:11:37.200Z,4.04
2023-04-16T12:12:37.208Z,4.03
2023-04-16T12:13:37.199Z,3.80
2023-04-16T12:14:37.179Z,3.69
2023-04-16T12:15:37.196Z,3.72
2023-04-16T12:16:37.168Z,4.09
2023-04-16T12:17:37.204Z,4.10
2023-04-16T12:18:37.181Z,3.99
2023-04-16T12:19:37.144Z,4.02
2023-04-16T12:20:37.140Z,3.97
2023-04-16T12:21:37.139Z,4.11
2023-04-16T12:22:37.524Z,3.82
2023-04-16T12:23:37.171Z,3.64
2023-04-16T12:24:37.114Z,3.60
2023-04-16T12:25:37.093Z,3.79
2023-04-16T12:26:37.110Z,4.10
2023-04-16T12:27:37.090Z,4.05
2023-04-16T12:28:37.111Z,3.77
2023-04-16T12:29:37.082Z,3.78
2023-04-16T12:30:37.105Z,3.92
2023-04-16T12:31:37.072Z,3.91
2023-04-16T12:32:37.086Z,3.75
2023-04-16T12:33:37.072Z,3.56
2023-04-16T12:34:48.014Z,3.44
2023-04-16T12:35:38.037Z,3.45
2023-04-16T12:36:37.028Z,3.51
2023-04-16T12:37:37.019Z,3.46
2023-04-16T12:38:37.028Z,3.51
2023-04-16T12:39:37.009Z,3.59
2023-04-16T12:40:36.990Z,3.84
2023-04-16T12:41:36.996Z,3.74
2023-04-16T12:42:37.009Z,3.67
2023-04-16T12:43:37.007Z,3.73
2023-04-16T12:44:36.989Z,3.75
2023-04-16T12:45:36.973Z,3.59
2023-04-16T12:46:36.992Z,3.61
2023-04-16T12:47:36.983Z,3.56
2023-04-16T12:48:36.959Z,3.57
2023-04-16T12:49:36.949Z,3.44
2023-04-16T12:50:36.937Z,3.71
2023-04-16T12:51:36.935Z,3.50
2023-04-16T12:52:36.937Z,3.66
2023-04-16T12:53:36.921Z,3.50
2023-04-16T12:54:36.918Z,3.59
2023-04-16T12:55:36.904Z,3.31
2023-04-16T12:56:36.874Z,3.23
2023-04-16T12:57:36.875Z,3.01
2023-04-16T12:58:36.896Z,2.97
2023-04-16T12:59:36.857Z,3.21
2023-04-16T13:00:36.882Z,3.28
2023-04-16T13:01:36.881Z,3.26
2023-04-16T13:02:36.980Z,3.41
2023-04-16T13:03:36.961Z,3.60
2023-04-16T13:04:36.923Z,3.67
2023-04-16T13:05:36.827Z,3.39
2023-04-16T13:06:36.830Z,3.61
2023-04-16T13:07:36.806Z,3.74
2023-04-16T13:08:36.852Z,3.49
2023-04-16T13:09:39.151Z,3.57
2023-04-16T13:10:36.777Z,3.58
2023-04-16T13:11:36.770Z,3.36
2023-04-16T13:12:36.780Z,3.51
2023-04-16T13:13:36.788Z,3.35
2023-04-16T13:14:36.750Z,3.66
2023-04-16T13:15:36.791Z,3.49
2023-04-16T13:16:36.740Z,3.58
2023-04-16T13:17:36.804Z,3.41
2023-04-16T13:18:36.758Z,3.17